Time;durP1;ratioP1;P1;durP2;ratioP2;P2;SDS_P1;SDS_P2;PMS_P1;PMS_P2;Temp;Humidity;BMP_temperature;BMP_pressure;BME280_temperature;BME280_humidity;BME280_pressure;Samples;Min_cycle;Max_cycle;Signal;HPM_P1;HPM_P2
2023/05/12 00:02:17;;;;;;;11.43;9.98;;;;;;;12.83;100.00;101536.41;5027247;28;20026;-85
2023/05/12 00:04:45;;;;;;;14.48;10.52;;;;;;;12.75;100.00;101526.31;5017111;28;20029;-85
2023/05/12 00:07:11;;;;;;;11.60;9.07;;;;;;;12.74;100.00;101532.63;5023668;28;20054;-85
2023/05/12 00:09:36;;;;;;;9.73;8.30;;;;;;;12.67;100.00;101521.53;5030754;28;20046;-85
2023/05/12 00:12:03;;;;;;;10.10;7.82;;;;;;;12.69;100.00;101534.75;5031163;28;20475;-85
2023/05/12 00:14:28;;;;;;;8.70;7.72;;;;;;;12.67;100.00;101529.53;5027194;28;20112;-85
2023/05/12 00:16:54;;;;;;;9.88;7.05;;;;;;;12.64;100.00;101532.47;5027963;28;20033;-85
2023/05/12 00:19:19;;;;;;;9.48;7.30;;;;;;;12.62;100.00;101531.69;5028682;28;20475;-85
2023/05/12 00:21:45;;;;;;;8.55;7.63;;;;;;;12.64;100.00;101537.78;5034851;28;20108;-85
2023/05/12 00:24:11;;;;;;;9.32;7.90;;;;;;;12.58;100.00;101522.25;5032550;28;20100;-85
2023/05/12 00:26:36;;;;;;;8.70;7.65;;;;;;;12.61;100.00;101527.34;5034597;28;20447;-85
2023/05/12 00:29:01;;;;;;;8.63;7.72;;;;;;;12.62;100.00;101526.38;5035625;28;20028;-85
2023/05/12 00:31:28;;;;;;;11.52;8.57;;;;;;;12.61;100.00;101524.69;5035904;28;20051;-85
2023/05/12 00:33:54;;;;;;;10.13;8.05;;;;;;;12.66;100.00;101522.53;5035281;28;20537;-85
2023/05/12 00:36:19;;;;;;;10.63;8.50;;;;;;;12.57;100.00;101516.06;5028501;28;20029;-85
2023/05/12 00:38:44;;;;;;;10.13;8.38;;;;;;;12.59;100.00;101516.81;5036382;28;20053;-85
2023/05/12 00:41:10;;;;;;;10.30;8.48;;;;;;;12.58;100.00;101528.41;5034391;28;20056;-85
2023/05/12 00:43:35;;;;;;;10.60;8.55;;;;;;;12.56;100.00;101529.50;5059003;28;20010;-86
2023/05/12 00:46:04;;;;;;;9.48;7.57;;;;;;;12.40;100.00;101509.31;5058016;28;20009;-86
2023/05/12 00:48:30;;;;;;;9.30;8.18;;;;;;;12.42;100.00;101513.69;5049932;28;20064;-86
2023/05/12 00:50:57;;;;;;;8.10;7.35;;;;;;;12.43;100.00;101520.72;5058937;28;20017;-85
2023/05/12 00:53:22;;;;;;;8.43;7.40;;;;;;;12.34;100.00;101515.09;5058679;28;20014;-87
2023/05/12 00:55:48;;;;;;;8.38;7.25;;;;;;;12.40;100.00;101527.94;5056408;28;20032;-86
2023/05/12 00:58:13;;;;;;;8.23;7.22;;;;;;;12.37;100.00;101516.69;5057935;28;20036;-86
2023/05/12 01:00:38;;;;;;;8.00;7.10;;;;;;;12.35;100.00;101518.59;5039687;28;20080;-86
2023/05/12 01:03:04;;;;;;;9.80;8.18;;;;;;;12.31;100.00;101515.31;5027658;28;20030;-86
2023/05/12 01:05:35;;;;;;;9.07;7.88;;;;;;;12.24;100.00;101513.22;5033556;28;20040;-86
2023/05/12 01:08:02;;;;;;;8.80;7.32;;;;;;;12.10;100.00;101499.09;5034136;28;20037;-86
2023/05/12 01:10:27;;;;;;;10.55;7.35;;;;;;;12.20;100.00;101512.59;5033640;28;20036;-86
2023/05/12 01:12:52;;;;;;;8.48;7.53;;;;;;;12.21;100.00;101514.31;5034251;28;20025;-86
2023/05/12 01:15:18;;;;;;;10.38;7.97;;;;;;;12.17;100.00;101512.81;5030178;28;20042;-86
2023/05/12 01:17:54;;;;;;;9.23;7.85;;;;;;;12.12;100.00;101499.81;5027464;28;20422;-86
2023/05/12 01:20:24;;;;;;;10.43;7.53;;;;;;;12.01;100.00;101481.97;5023536;28;20120;-85
2023/05/12 01:22:51;;;;;;;11.77;7.38;;;;;;;12.08;100.00;101498.34;5032462;28;20067;-86
2023/05/12 01:25:21;;;;;;;8.98;7.40;;;;;;;12.15;100.00;101504.09;5033994;28;20025;-86
2023/05/12 01:27:47;;;;;;;10.68;7.20;;;;;;;12.16;100.00;101500.47;5032281;28;20041;-86
2023/05/12 01:30:16;;;;;;;9.70;7.75;;;;;;;12.12;100.00;101510.47;5033675;28;20033;-86
2023/05/12 01:32:42;;;;;;;12.00;7.53;;;;;;;12.12;100.00;101498.97;5033448;28;20090;-86
2023/05/12 01:35:07;;;;;;;10.57;8.10;;;;;;;12.03;100.00;101484.53;5028508;28;20108;-86
2023/05/12 01:37:33;;;;;;;10.95;8.25;;;;;;;12.09;100.00;101491.22;5026987;28;20548;-86
2023/05/12 01:39:58;;;;;;;9.75;7.75;;;;;;;12.08;100.00;101492.19;5017075;28;20034;-87
2023/05/12 01:42:23;;;;;;;11.13;8.02;;;;;;;12.02;100.00;101486.34;5015633;28;20065;-87
2023/05/12 01:44:48;;;;;;;10.55;8.20;;;;;;;12.05;100.00;101489.75;5031246;28;20083;-87
2023/05/12 01:47:14;;;;;;;8.48;7.65;;;;;;;12.06;100.00;101496.75;5033828;28;20022;-86
2023/05/12 01:49:40;;;;;;;9.35;8.35;;;;;;;12.03;100.00;101497.84;5021257;28;20017;-87
2023/05/12 01:52:05;;;;;;;10.50;8.48;;;;;;;11.98;100.00;101492.84;5024172;28;20057;-87
2023/05/12 01:54:30;;;;;;;10.23;7.80;;;;;;;11.93;100.00;101476.34;5021958;28;20378;-86
2023/05/12 01:56:56;;;;;;;10.30;7.88;;;;;;;11.96;100.00;101484.13;5025760;28;20492;-86
2023/05/12 01:59:21;;;;;;;7.85;7.07;;;;;;;11.94;100.00;101483.38;5031389;28;20033;-86
2023/05/12 02:01:46;;;;;;;8.77;7.88;;;;;;;11.93;100.00;101486.16;5029530;28;20472;-87
2023/05/12 02:04:14;;;;;;;9.43;7.50;;;;;;;11.88;100.00;101485.59;5032989;28;20116;-86
2023/05/12 02:06:39;;;;;;;8.60;7.45;;;;;;;11.82;100.00;101476.25;5031631;28;20029;-87
2023/05/12 02:09:05;;;;;;;8.57;7.30;;;;;;;11.84;100.00;101485.81;5023797;28;20045;-87
2023/05/12 02:11:30;;;;;;;7.95;6.63;;;;;;;11.75;100.00;101475.81;5031753;28;20105;-87
2023/05/12 02:13:55;;;;;;;8.55;7.10;;;;;;;11.77;100.00;101486.38;5031606;28;20033;-87
2023/05/12 02:16:21;;;;;;;14.38;7.57;;;;;;;11.75;100.00;101483.81;5033506;28;20032;-86
2023/05/12 02:18:47;;;;;;;6.95;6.22;;;;;;;11.69;100.00;101467.44;5034068;28;20040;-87
2023/05/12 02:21:15;;;;;;;7.93;6.35;;;;;;;11.66;100.00;101471.19;5032659;28;20112;-87
2023/05/12 02:23:40;;;;;;;11.70;6.33;;;;;;;11.69;100.00;101470.97;5032958;28;20026;-86
2023/05/12 02:26:06;;;;;;;7.72;6.07;;;;;;;11.68;100.00;101468.41;5031001;28;20120;-87
2023/05/12 02:28:32;;;;;;;7.47;5.90;;;;;;;11.63;100.00;101463.41;5030747;28;20018;-86
2023/05/12 02:30:58;;;;;;;8.05;6.50;;;;;;;11.56;100.00;101449.69;5031971;28;20017;-86
2023/05/12 02:33:23;;;;;;;8.20;6.13;;;;;;;11.61;100.00;101458.19;5019877;28;20502;-87
2023/05/12 02:35:49;;;;;;;8.23;5.97;;;;;;;11.59;100.00;101453.94;5033065;28;20510;-87
2023/05/12 02:38:14;;;;;;;7.00;6.28;;;;;;;11.61;100.00;101452.88;5033080;28;20041;-87
2023/05/12 02:40:41;;;;;;;6.25;5.65;;;;;;;11.59;100.00;101449.47;5032532;28;20021;-87
2023/05/12 02:43:06;;;;;;;7.32;6.45;;;;;;;11.61;100.00;101447.56;5021107;28;20037;-87
2023/05/12 02:45:32;;;;;;;8.38;6.05;;;;;;;11.58;100.00;101447.75;5031481;28;20383;-87
2023/05/12 02:47:58;;;;;;;7.00;5.63;;;;;;;11.60;100.00;101453.81;5029728;28;20110;-87
2023/05/12 02:50:23;;;;;;;7.35;5.43;;;;;;;11.63;100.00;101450.09;5032789;28;20487;-88
2023/05/12 02:52:49;;;;;;;5.88;5.28;;;;;;;11.54;100.00;101442.75;5032865;28;20036;-87
2023/05/12 02:55:15;;;;;;;6.03;5.35;;;;;;;11.57;100.00;101451.38;5031838;28;20026;-87
2023/05/12 02:57:40;;;;;;;7.10;5.45;;;;;;;11.56;100.00;101448.84;5032293;28;20029;-88
2023/05/12 03:00:06;;;;;;;5.68;4.80;;;;;;;11.53;100.00;101439.25;5024752;28;20376;-87
2023/05/12 03:02:32;;;;;;;5.22;4.68;;;;;;;11.55;100.00;101445.31;5031308;28;20029;-87
2023/05/12 03:04:58;;;;;;;5.53;4.82;;;;;;;11.54;100.00;101438.31;5032198;28;20104;-87
2023/05/12 03:07:23;;;;;;;6.50;4.57;;;;;;;11.56;100.00;101441.72;5024250;28;20109;-87
2023/05/12 03:09:49;;;;;;;5.45;4.57;;;;;;;11.55;100.00;101440.00;5022985;28;20064;-86
2023/05/12 03:12:14;;;;;;;5.35;4.28;;;;;;;11.52;100.00;101437.56;5028602;28;20072;-86
2023/05/12 03:14:40;;;;;;;5.88;4.45;;;;;;;11.52;100.00;101437.56;5019515;28;20022;-86
2023/05/12 03:17:05;;;;;;;7.75;4.35;;;;;;;11.53;100.00;101433.09;5029222;28;20033;-86
2023/05/12 03:19:30;;;;;;;4.72;4.20;;;;;;;11.48;100.00;101422.78;5023832;28;20113;-86
2023/05/12 03:21:56;;;;;;;6.10;4.45;;;;;;;11.48;100.00;101417.47;5027872;28;20040;-86
2023/05/12 03:24:21;;;;;;;5.60;3.75;;;;;;;11.50;100.00;101423.50;5028410;28;20106;-86
2023/05/12 03:26:47;;;;;;;4.13;3.72;;;;;;;11.45;100.00;101410.53;5027380;28;20022;-87
2023/05/12 03:29:12;;;;;;;3.90;3.58;;;;;;;11.48;100.00;101410.31;5023071;28;20053;-87
2023/05/12 03:31:37;;;;;;;3.80;3.50;;;;;;;11.51;100.00;101419.03;5020100;28;20029;-87
2023/05/12 03:34:03;;;;;;;5.50;3.70;;;;;;;11.52;100.00;101418.09;5022060;28;20025;-86
2023/05/12 03:36:28;;;;;;;4.55;3.58;;;;;;;11.51;100.00;101414.59;5031263;28;20100;-87
2023/05/12 03:38:53;;;;;;;6.50;3.90;;;;;;;11.51;100.00;101413.72;5031950;28;20075;-87
2023/05/12 03:41:18;;;;;;;6.28;4.15;;;;;;;11.44;100.00;101405.31;5029100;28;20092;-88
2023/05/12 03:43:44;;;;;;;4.60;4.20;;;;;;;11.46;100.00;101409.59;5023593;28;20030;-87
2023/05/12 03:46:09;;;;;;;6.07;4.85;;;;;;;11.38;100.00;101387.16;5034095;28;20036;-87
2023/05/12 03:48:35;;;;;;;7.72;5.03;;;;;;;11.38;100.00;101397.81;5022001;28;20029;-87
2023/05/12 03:51:00;;;;;;;5.22;4.75;;;;;;;11.42;100.00;101402.81;5031888;28;20022;-87
2023/05/12 03:53:25;;;;;;;5.55;5.05;;;;;;;11.36;100.00;101392.59;5033010;28;20036;-88
2023/05/12 03:55:51;;;;;;;5.95;5.35;;;;;;;11.42;100.00;101407.25;5031770;28;20021;-87
2023/05/12 03:58:16;;;;;;;9.32;6.32;;;;;;;11.34;100.00;101405.16;5029135;28;20107;-87
2023/05/12 04:00:41;;;;;;;7.57;6.38;;;;;;;11.29;100.00;101393.97;5034642;28;20021;-88
2023/05/12 04:03:07;;;;;;;7.85;6.70;;;;;;;11.25;100.00;101380.03;5035925;28;20079;-87
2023/05/12 04:05:32;;;;;;;9.55;7.40;;;;;;;11.26;100.00;101388.88;5036483;28;20029;-87
2023/05/12 04:07:57;;;;;;;9.63;6.93;;;;;;;11.28;100.00;101393.13;5033035;28;20029;-87
2023/05/12 04:10:23;;;;;;;8.68;7.30;;;;;;;11.34;100.00;101396.31;5028729;28;20060;-87
2023/05/12 04:12:48;;;;;;;9.07;7.07;;;;;;;11.29;100.00;101396.63;5019822;28;20040;-88
2023/05/12 04:15:13;;;;;;;9.73;7.80;;;;;;;11.33;100.00;101394.63;5028313;28;20029;-88
2023/05/12 04:17:39;;;;;;;8.75;7.57;;;;;;;11.26;100.00;101389.72;5035393;28;20044;-88
2023/05/12 04:20:06;;;;;;;10.95;8.10;;;;;;;11.32;100.00;101398.22;5017615;28;20104;-88
2023/05/12 04:22:31;;;;;;;11.90;8.50;;;;;;;11.32;100.00;101392.91;5030990;28;20030;-88
2023/05/12 04:24:56;;;;;;;11.70;9.02;;;;;;;11.33;100.00;101389.31;5036019;28;20075;-88
2023/05/12 04:27:24;;;;;;;12.88;9.65;;;;;;;11.27;100.00;101391.44;5036734;28;20030;-88
2023/05/12 04:29:50;;;;;;;12.43;9.57;;;;;;;11.29;100.00;101394.84;5036368;28;20088;-88
2023/05/12 04:32:15;;;;;;;15.63;11.10;;;;;;;11.29;100.00;101388.66;5036443;28;20033;-88
2023/05/12 04:34:41;;;;;;;15.25;10.40;;;;;;;11.30;100.00;101395.69;5036243;28;20086;-88
2023/05/12 04:37:06;;;;;;;18.30;11.73;;;;;;;11.27;100.00;101388.78;5036169;28;20025;-88
2023/05/12 04:39:31;;;;;;;16.55;10.95;;;;;;;11.22;100.00;101380.25;5036077;28;20029;-88
2023/05/12 04:41:59;;;;;;;16.05;11.10;;;;;;;11.29;100.00;101400.16;5035946;28;20155;-88
2023/05/12 04:44:24;;;;;;;15.32;11.05;;;;;;;11.23;100.00;101383.78;5036462;28;20074;-88
2023/05/12 04:46:52;;;;;;;19.58;11.63;;;;;;;11.05;100.00;101354.88;5035819;28;20104;-88
2023/05/12 04:49:19;;;;;;;18.90;12.70;;;;;;;11.16;100.00;101372.72;5036146;28;20029;-88
2023/05/12 04:51:47;;;;;;;21.17;13.15;;;;;;;11.18;100.00;101384.09;5036189;28;20036;-89
2023/05/12 04:54:13;;;;;;;20.85;13.77;;;;;;;11.14;100.00;101376.44;5035985;28;20036;-88
2023/05/12 04:56:38;;;;;;;20.42;14.15;;;;;;;11.27;100.00;101390.56;5036157;28;20391;-88
2023/05/12 04:59:04;;;;;;;23.67;14.32;;;;;;;11.27;100.00;101399.41;5035862;28;20613;-89
2023/05/12 05:01:29;;;;;;;21.58;14.75;;;;;;;11.21;100.00;101394.53;5036057;28;20482;-88
2023/05/12 05:03:54;;;;;;;22.08;14.73;;;;;;;11.06;100.00;101369.03;5036015;28;20025;-88
2023/05/12 05:06:20;;;;;;;22.05;14.15;;;;;;;11.08;100.00;101372.41;5035403;28;20033;-88
2023/05/12 05:08:45;;;;;;;21.30;14.40;;;;;;;11.14;100.00;101379.09;5021068;28;20120;-88
2023/05/12 05:11:10;;;;;;;23.35;16.00;;;;;;;11.18;100.00;101397.41;5016578;28;20018;-88
2023/05/12 05:13:38;;;;;;;27.08;16.92;;;;;;;11.17;100.00;101393.03;5022387;28;20033;-88
2023/05/12 05:16:04;;;;;;;26.38;17.58;;;;;;;11.14;100.00;101392.41;5036401;28;20387;-88
2023/05/12 05:18:29;;;;;;;27.35;17.75;;;;;;;11.25;100.00;101403.97;5040699;28;20037;-88
2023/05/12 05:20:54;;;;;;;30.20;19.35;;;;;;;11.27;100.00;101403.88;5038164;28;20417;-88
2023/05/12 05:23:20;;;;;;;29.60;19.42;;;;;;;11.31;100.00;101410.69;5019081;28;20038;-88
2023/05/12 05:25:47;;;;;;;30.25;19.77;;;;;;;11.21;100.00;101397.19;5024544;28;20071;-88
2023/05/12 05:28:13;;;;;;;29.90;20.30;;;;;;;11.19;100.00;101395.56;5035403;28;20116;-88
2023/05/12 05:30:38;;;;;;;30.77;20.63;;;;;;;11.37;100.00;101422.69;5035100;28;20073;-87
2023/05/12 05:33:03;;;;;;;30.65;20.77;;;;;;;11.35;100.00;101417.47;5035259;28;20022;-88
2023/05/12 05:35:30;;;;;;;31.38;21.42;;;;;;;11.35;100.00;101420.13;5035062;28;20048;-88
2023/05/12 05:37:55;;;;;;;32.67;22.33;;;;;;;11.40;100.00;101428.63;5034867;28;20040;-88
2023/05/12 05:40:21;;;;;;;33.78;22.38;;;;;;;11.40;100.00;101423.31;5034952;28;20332;-88
2023/05/12 05:42:46;;;;;;;36.85;23.23;;;;;;;11.47;100.00;101424.59;5034910;28;20026;-88
2023/05/12 05:45:11;;;;;;;35.05;23.35;;;;;;;11.43;100.00;101428.41;5035128;28;20028;-88
2023/05/12 05:47:37;;;;;;;33.30;23.50;;;;;;;11.51;100.00;101438.53;5035110;28;20187;-88
2023/05/12 05:50:05;;;;;;;34.03;23.17;;;;;;;11.54;100.00;101435.66;5025739;28;20025;-88
2023/05/12 05:52:31;;;;;;;35.05;23.77;;;;;;;11.55;100.00;101441.81;5027279;28;20182;-88
2023/05/12 05:54:56;;;;;;;36.22;24.50;;;;;;;11.58;100.00;101449.59;5022127;28;20468;-88
2023/05/12 05:57:21;;;;;;;35.58;24.40;;;;;;;11.60;100.00;101443.19;5018157;28;20041;-87
2023/05/12 05:59:47;;;;;;;34.95;23.73;;;;;;;11.59;100.00;101438.84;5033800;28;20025;-88
2023/05/12 06:02:14;;;;;;;36.38;24.77;;;;;;;11.65;100.00;101442.84;5034390;28;20026;-89
2023/05/12 06:04:39;;;;;;;34.67;25.33;;;;;;;11.63;100.00;101439.47;5034242;28;20147;-89
2023/05/12 06:07:06;;;;;;;37.35;25.08;;;;;;;11.58;100.00;101430.97;5033692;28;20029;-90
2023/05/12 06:09:32;;;;;;;39.00;26.38;;;;;;;11.57;100.00;101429.25;5034006;28;20545;-88
2023/05/12 06:11:57;;;;;;;38.33;26.17;;;;;;;11.69;100.00;101444.34;5033772;28;20033;-88
2023/05/12 06:14:24;;;;;;;37.55;25.77;;;;;;;11.69;100.00;101443.47;5033929;28;20035;-89
2023/05/12 06:16:50;;;;;;;35.13;25.13;;;;;;;11.79;100.00;101463.16;5032898;28;20029;-87
2023/05/12 06:19:15;;;;;;;36.15;25.92;;;;;;;11.64;100.00;101451.78;5033865;28;20033;-88
2023/05/12 06:21:43;;;;;;;37.65;27.38;;;;;;;11.84;100.00;101479.66;5034005;28;20061;-88
2023/05/12 06:24:09;;;;;;;35.88;26.40;;;;;;;11.88;100.00;101489.13;5035112;28;20048;-87
2023/05/12 06:26:35;;;;;;;36.47;25.83;;;;;;;11.77;100.00;101457.09;5033481;28;20469;-87
2023/05/12 06:29:00;;;;;;;37.35;26.58;;;;;;;11.90;100.00;101473.88;5032965;28;20094;-87
2023/05/12 06:31:26;;;;;;;38.40;26.42;;;;;;;11.97;100.00;101491.16;5033436;28;20045;-87
2023/05/12 06:33:51;;;;;;;38.38;26.80;;;;;;;12.03;100.00;101489.84;5032698;28;20387;-87
2023/05/12 06:36:16;;;;;;;38.28;27.55;;;;;;;11.99;100.00;101477.72;5033070;28;20067;-87
2023/05/12 06:38:42;;;;;;;39.63;28.30;;;;;;;12.07;100.00;101474.50;5033939;28;20034;-87
2023/05/12 06:41:07;;;;;;;36.90;27.20;;;;;;;11.99;100.00;101459.06;5031901;28;20120;-87
2023/05/12 06:43:35;;;;;;;36.25;27.73;;;;;;;12.25;100.00;101490.94;5033359;28;20491;-88
2023/05/12 06:46:01;;;;;;;39.47;29.48;;;;;;;12.27;100.00;101489.84;5032903;28;20033;-87
2023/05/12 06:48:26;;;;;;;35.20;28.08;;;;;;;12.40;100.00;101500.47;5033413;28;20048;-88
2023/05/12 06:50:52;;;;;;;40.40;28.52;;;;;;;12.49;100.00;101505.13;5032762;28;20041;-88
2023/05/12 06:53:17;;;;;;;35.10;27.85;;;;;;;12.56;100.00;101503.69;5033159;28;20514;-87
2023/05/12 06:55:43;;;;;;;34.55;27.90;;;;;;;12.64;100.00;101502.28;5031777;28;20063;-87
2023/05/12 06:58:08;;;;;;;37.45;26.98;;;;;;;12.65;100.00;101502.16;5032881;28;20052;-88
2023/05/12 07:00:33;;;;;;;34.05;28.23;;;;;;;12.73;100.00;101507.75;5017889;28;20084;-88
2023/05/12 07:02:59;;;;;;;32.40;27.02;;;;;;;12.78;100.00;101512.75;5028919;28;20029;-87
2023/05/12 07:05:24;;;;;;;29.45;24.58;;;;;;;12.86;100.00;101515.69;5033035;28;20494;-88
2023/05/12 07:07:55;;;;;;;27.35;24.02;;;;;;;12.87;100.00;101506.75;5033552;28;20037;-87
2023/05/12 07:10:20;;;;;;;25.80;23.10;;;;;;;13.00;100.00;101511.13;5033252;28;20418;-87
2023/05/12 07:12:46;;;;;;;27.20;24.30;;;;;;;13.10;100.00;101517.44;5032732;28;20102;-83
2023/05/12 07:15:11;;;;;;;25.80;23.05;;;;;;;13.17;100.00;101523.16;5031614;28;20044;-86
2023/05/12 07:17:36;;;;;;;26.05;23.30;;;;;;;13.21;100.00;101527.31;5023663;28;20033;-85
2023/05/12 07:20:03;;;;;;;24.90;22.30;;;;;;;13.22;100.00;101527.19;5033339;28;20159;-87
2023/05/12 07:22:31;;;;;;;23.10;20.85;;;;;;;13.19;100.00;101519.44;5026553;28;20050;-86
2023/05/12 07:24:56;;;;;;;21.77;19.58;;;;;;;13.26;100.00;101515.31;5015425;28;20152;-86
2023/05/12 07:27:21;;;;;;;20.73;18.60;;;;;;;13.36;100.00;101531.50;5032701;28;20065;-85
2023/05/12 07:29:47;;;;;;;17.70;16.05;;;;;;;13.42;100.00;101530.16;5036247;28;20135;-87
2023/05/12 07:32:12;;;;;;;18.65;16.75;;;;;;;13.47;100.00;101536.84;5036619;28;20050;-87
2023/05/12 07:34:38;;;;;;;18.75;16.58;;;;;;;13.42;100.00;101522.16;5035505;28;20040;-87
2023/05/12 07:37:05;;;;;;;17.08;15.32;;;;;;;13.50;100.00;101527.75;5036380;28;20048;-87
2023/05/12 07:39:31;;;;;;;17.92;16.10;;;;;;;13.58;100.00;101528.00;5036874;28;20017;-90
2023/05/12 07:41:57;;;;;;;20.38;16.63;;;;;;;13.64;100.00;101535.53;5036873;28;20104;-90
2023/05/12 07:44:23;;;;;;;16.55;14.98;;;;;;;13.68;100.00;101533.47;5037206;28;20029;-89
2023/05/12 07:46:48;;;;;;;14.25;12.88;;;;;;;13.86;100.00;101536.50;5036965;28;20029;-88
2023/05/12 07:49:13;;;;;;;14.18;12.88;;;;;;;13.88;100.00;101519.38;5035899;28;20025;-88
2023/05/12 07:51:53;;;;;;;13.18;11.73;;;;;;;14.14;100.00;101540.47;5036877;28;20126;-89
2023/05/12 07:54:18;;;;;;;11.45;10.35;;;;;;;14.27;100.00;101547.50;5036711;28;20049;-89
2023/05/12 07:56:43;;;;;;;9.77;8.75;;;;;;;14.31;100.00;101548.97;5036881;28;20057;-88
2023/05/12 07:59:09;;;;;;;8.85;8.05;;;;;;;14.41;100.00;101550.75;5036922;28;20483;-89
2023/05/12 08:01:34;;;;;;;7.70;7.03;;;;;;;14.44;100.00;101547.81;5036935;28;20029;-89
2023/05/12 08:04:00;;;;;;;8.20;7.50;;;;;;;14.38;100.00;101534.94;5036906;28;20107;-89
2023/05/12 08:06:25;;;;;;;9.73;8.55;;;;;;;14.56;100.00;101566.50;5036513;28;20028;-88
2023/05/12 08:08:50;;;;;;;9.80;8.80;;;;;;;14.51;100.00;101534.81;5037454;28;20172;-88
2023/05/12 08:11:16;;;;;;;9.25;8.20;;;;;;;14.89;100.00;101556.69;5037698;28;20025;-88
2023/05/12 08:13:41;;;;;;;8.63;7.82;;;;;;;14.99;100.00;101558.47;5036669;28;20040;-88
2023/05/12 08:16:07;;;;;;;9.60;8.70;;;;;;;14.98;100.00;101548.72;5036941;28;20118;-89
2023/05/12 08:18:32;;;;;;;8.07;7.38;;;;;;;15.03;100.00;101568.91;5036342;28;20025;-88
2023/05/12 08:20:57;;;;;;;7.78;6.93;;;;;;;14.95;100.00;101556.16;5036590;28;20068;-88
2023/05/12 08:23:23;;;;;;;8.30;7.50;;;;;;;14.92;100.00;101541.25;5036353;28;20057;-88
2023/05/12 08:25:48;;;;;;;7.82;7.15;;;;;;;15.14;100.00;101567.03;5036413;28;20029;-89
2023/05/12 08:28:13;;;;;;;9.30;8.50;;;;;;;15.29;100.00;101559.53;5036315;28;20132;-88
2023/05/12 08:30:43;;;;;;;7.90;7.20;;;;;;;15.38;100.00;101562.41;5038180;28;20091;-88
2023/05/12 08:33:09;;;;;;;7.90;7.20;;;;;;;15.48;100.00;101572.16;5037025;28;20064;-88
2023/05/12 08:35:35;;;;;;;8.38;7.30;;;;;;;15.50;100.00;101572.91;5035911;28;20437;-88
2023/05/12 08:38:00;;;;;;;8.27;7.57;;;;;;;15.52;100.00;101576.28;5036477;28;20032;-89
2023/05/12 08:40:30;;;;;;;7.45;6.68;;;;;;;15.63;100.00;101569.16;5033815;28;20369;-89
2023/05/12 08:43:10;;;;;;;8.48;6.78;;;;;;;15.85;100.00;101581.56;5035764;28;20029;-89
2023/05/12 08:45:37;;;;;;;9.27;5.82;;;;;;;16.01;98.85;101579.22;5035689;28;20033;-89
2023/05/12 08:48:04;;;;;;;6.82;5.72;;;;;;;16.05;96.91;101571.78;5035794;28;20028;-89
2023/05/12 08:50:31;;;;;;;7.30;4.90;;;;;;;16.08;93.79;101582.22;5035549;28;20037;-88
2023/05/12 08:52:57;;;;;;;4.90;4.50;;;;;;;16.01;92.61;101589.13;5035985;28;20040;-89
2023/05/12 08:55:25;;;;;;;5.18;4.60;;;;;;;15.95;91.46;101576.25;5035251;28;20040;-88
2023/05/12 08:57:55;;;;;;;5.28;4.78;;;;;;;16.01;92.19;101579.22;5035996;28;20124;-88
2023/05/12 09:00:24;;;;;;;7.47;4.65;;;;;;;16.13;92.73;101590.69;5035592;28;20021;-88
2023/05/12 09:02:50;;;;;;;5.30;4.35;;;;;;;16.22;91.92;101591.72;5035901;28;20383;-88
2023/05/12 09:05:15;;;;;;;4.70;4.30;;;;;;;16.21;91.85;101584.66;5035618;28;20029;-89
2023/05/12 09:07:45;;;;;;;4.20;3.80;;;;;;;16.37;90.45;101597.53;5035451;28;20025;-89
2023/05/12 09:10:18;;;;;;;5.15;4.07;;;;;;;16.45;88.96;101595.88;5035269;28;20053;-89
2023/05/12 09:12:46;;;;;;;8.15;4.32;;;;;;;16.59;90.48;101600.00;5049223;28;20474;-89
2023/05/12 09:15:18;;;;;;;4.22;3.67;;;;;;;16.70;91.25;101599.00;5055331;28;20025;-89
2023/05/12 09:17:44;;;;;;;3.65;3.33;;;;;;;16.80;87.10;101596.34;5048983;28;20040;-88
2023/05/12 09:20:11;;;;;;;5.90;3.40;;;;;;;16.83;83.66;101604.97;5036795;28;20530;-89
2023/05/12 09:22:40;;;;;;;5.25;3.17;;;;;;;16.91;84.35;101598.94;5035663;28;20033;-89
2023/05/12 09:25:20;;;;;;;4.57;3.15;;;;;;;16.97;84.24;101594.81;5036711;28;20041;-88
2023/05/12 09:27:48;;;;;;;4.88;2.83;;;;;;;17.12;83.48;101604.16;5038868;28;20033;-88
2023/05/12 09:30:13;;;;;;;3.47;3.15;;;;;;;17.15;82.84;101598.53;5038898;28;20120;-89
2023/05/12 09:32:39;;;;;;;3.13;2.83;;;;;;;17.15;81.40;101598.53;5039252;28;20462;-88
2023/05/12 09:35:06;;;;;;;4.10;3.00;;;;;;;17.27;81.26;101606.41;5036958;28;20452;-88
2023/05/12 09:37:34;;;;;;;3.28;2.95;;;;;;;17.55;80.22;101599.28;5036505;28;20022;-88
2023/05/12 09:40:00;;;;;;;2.80;2.60;;;;;;;17.54;79.57;101587.72;5034218;28;20029;-88
2023/05/12 09:42:28;;;;;;;5.05;3.13;;;;;;;17.76;77.74;101609.84;5025689;28;20117;-87
2023/05/12 09:44:58;;;;;;;4.18;3.40;;;;;;;17.85;82.28;101594.69;5033458;28;20026;-88
2023/05/12 09:47:27;;;;;;;6.40;3.08;;;;;;;17.83;78.44;101597.50;5034207;28;20056;-89
2023/05/12 09:49:56;;;;;;;3.35;3.10;;;;;;;17.79;76.65;101601.50;5034724;28;20112;-88
2023/05/12 09:52:21;;;;;;;3.35;3.05;;;;;;;17.80;76.11;101602.34;5021776;28;20022;-89
2023/05/12 09:54:47;;;;;;;4.50;2.97;;;;;;;17.75;75.71;101587.53;5015541;28;20032;-88
2023/05/12 09:57:15;;;;;;;3.65;2.72;;;;;;;17.97;78.00;101612.38;5014411;28;20065;-89
2023/05/12 09:59:43;;;;;;;3.35;3.00;;;;;;;18.00;76.21;101609.41;4996434;28;20038;-89
2023/05/12 10:02:15;;;;;;;2.30;2.10;;;;;;;18.11;76.65;101619.09;5014886;28;20034;-88
2023/05/12 10:04:54;;;;;;;4.28;2.70;;;;;;;18.20;77.54;101611.97;5014508;28;20032;-88
2023/05/12 10:07:21;;;;;;;2.78;2.35;;;;;;;18.27;73.17;101618.47;5014851;28;20037;-88
2023/05/12 10:09:48;;;;;;;2.28;2.13;;;;;;;18.21;71.75;101627.13;5014528;28;20073;-88
2023/05/12 10:12:15;;;;;;;2.75;2.35;;;;;;;18.18;71.62;101630.09;5021103;28;20037;-88
2023/05/12 10:14:41;;;;;;;2.50;2.30;;;;;;;18.36;73.73;101625.63;5033395;28;20083;-87
2023/05/12 10:17:08;;;;;;;2.42;2.25;;;;;;;18.53;72.60;101618.59;5032714;28;20120;-87
2023/05/12 10:19:34;;;;;;;2.63;2.33;;;;;;;18.74;70.68;101622.88;5032979;28;20461;-87
2023/05/12 10:22:00;;;;;;;1.95;1.73;;;;;;;18.85;67.83;101630.72;5034512;28;20055;-88
2023/05/12 10:24:26;;;;;;;3.03;2.60;;;;;;;18.76;67.91;101615.47;5034403;28;20056;-88
2023/05/12 10:26:58;;;;;;;3.50;2.72;;;;;;;18.64;69.56;101607.63;5034206;28;20104;-88
2023/05/12 10:29:31;;;;;;;3.08;2.63;;;;;;;18.72;70.06;101595.25;5034099;28;20036;-88
2023/05/12 10:31:58;;;;;;;3.47;2.50;;;;;;;19.01;67.56;101622.81;5032742;28;20120;-88
2023/05/12 10:34:35;;;;;;;2.25;2.05;;;;;;;19.12;67.25;101621.75;5033605;28;20344;-87
2023/05/12 10:37:05;;;;;;;3.40;2.15;;;;;;;19.14;64.52;101622.44;5020966;28;20031;-86
2023/05/12 10:39:31;;;;;;;4.25;2.50;;;;;;;19.20;65.20;101615.56;5032524;28;20444;-86
2023/05/12 10:42:04;;;;;;;6.07;2.50;;;;;;;19.20;65.77;101623.66;5032991;28;20120;-87
2023/05/12 10:44:29;;;;;;;2.63;2.35;;;;;;;19.44;66.32;101614.94;5032118;28;20503;-87
2023/05/12 10:46:57;;;;;;;2.22;2.05;;;;;;;19.70;65.25;101616.78;5032536;28;20113;-87
2023/05/12 10:49:32;;;;;;;4.35;2.40;;;;;;;19.80;63.42;101614.00;5032601;28;20037;-86
2023/05/12 10:52:00;;;;;;;3.67;2.30;;;;;;;19.93;62.61;101606.34;5021666;28;20021;-86
2023/05/12 10:54:26;;;;;;;8.20;2.20;;;;;;;19.99;63.29;101629.97;5033860;28;20042;-86
2023/05/12 10:56:56;;;;;;;4.72;2.03;;;;;;;19.96;59.36;101606.84;5014733;28;20026;-86
2023/05/12 10:59:23;;;;;;;2.08;1.83;;;;;;;20.00;58.81;101631.69;5027314;28;20087;-87
2023/05/12 11:01:59;;;;;;;6.20;2.38;;;;;;;20.10;59.91;101628.84;5035211;28;20037;-87
2023/05/12 11:04:36;;;;;;;1.83;1.70;;;;;;;20.06;61.25;101614.81;5034842;28;20060;-86
2023/05/12 11:07:04;;;;;;;2.80;1.83;;;;;;;20.09;58.18;101624.47;5035406;28;20031;-86
2023/05/12 11:09:29;;;;;;;3.20;2.20;;;;;;;20.00;56.54;101622.72;5035863;28;20534;-86
2023/05/12 11:11:55;;;;;;;2.40;2.20;;;;;;;20.11;59.62;101625.97;5025240;28;20025;-86